Time;durP1;ratioP1;P1;durP2;ratioP2;P2;SDS_P1;SDS_P2;PMS_P1;PMS_P2;Temp;Humidity;BMP_temperature;BMP_pressure;BME280_temperature;BME280_humidity;BME280_pressure;Samples;Min_cycle;Max_cycle;Signal;HPM_P1;HPM_P2
2023/04/04 00:04:55;;;;;;;10.65;5.20;;;;;;;6.93;80.25;100431.22;10338195;28;20050;-79
2023/04/04 00:09:56;;;;;;;13.48;4.85;;;;;;;6.98;80.73;100468.59;10338353;28;20042;-79
2023/04/04 00:14:56;;;;;;;8.18;5.15;;;;;;;6.76;81.49;100438.06;10337543;28;20046;-82
2023/04/04 00:19:57;;;;;;;11.77;6.00;;;;;;;6.87;82.65;100481.97;10337959;28;20088;-79
2023/04/04 00:24:58;;;;;;;8.75;5.00;;;;;;;6.16;82.74;100389.88;10337304;28;20049;-80
2023/04/04 00:29:59;;;;;;;11.77;4.82;;;;;;;6.69;82.57;100476.56;10337165;28;20049;-79
2023/04/04 00:35:00;;;;;;;11.43;6.13;;;;;;;6.25;82.75;100380.31;10337374;28;20557;-79
2023/04/04 00:40:02;;;;;;;13.05;5.65;;;;;;;6.81;83.63;100490.44;10352522;28;20510;-79
2023/04/04 00:45:07;;;;;;;11.43;5.90;;;;;;;6.57;84.74;100467.09;10336318;28;20038;-78
2023/04/04 00:50:08;;;;;;;13.20;6.03;;;;;;;6.60;82.81;100501.16;10337190;28;20050;-79
2023/04/04 00:55:09;;;;;;;8.82;5.22;;;;;;;6.49;81.77;100504.78;10335825;28;20030;-79
2023/04/04 01:00:11;;;;;;;6.20;4.25;;;;;;;6.16;82.05;100482.19;10336378;28;20510;-79
2023/04/04 01:05:12;;;;;;;9.52;4.88;;;;;;;5.55;82.17;100411.13;10334367;28;20141;-78
2023/04/04 01:10:13;;;;;;;9.48;5.70;;;;;;;6.09;82.49;100505.66;10335570;28;20133;-79
2023/04/04 01:15:14;;;;;;;17.00;5.65;;;;;;;6.08;83.53;100538.28;10335294;28;20076;-78
2023/04/04 01:20:21;;;;;;;13.95;6.25;;;;;;;6.11;83.96;100527.47;10335572;28;20030;-78
2023/04/04 01:25:29;;;;;;;46.65;17.17;;;;;;;5.72;83.99;100490.38;10335537;28;20053;-78
2023/04/04 01:30:32;;;;;;;64.82;23.95;;;;;;;5.25;83.42;100455.78;10334578;28;20100;-78
2023/04/04 01:35:44;;;;;;;23.85;11.02;;;;;;;5.12;83.94;100434.09;10335614;28;20046;-78
2023/04/04 01:40:48;;;;;;;17.63;7.40;;;;;;;5.53;83.87;100518.44;10345798;28;20034;-78
2023/04/04 01:45:49;;;;;;;17.55;5.78;;;;;;;5.41;82.61;100505.34;10334166;28;20520;-78
2023/04/04 01:50:51;;;;;;;16.92;5.07;;;;;;;5.37;82.43;100509.22;10334527;28;20042;-78
2023/04/04 01:55:53;;;;;;;34.95;6.28;;;;;;;5.29;83.25;100501.13;10333822;28;20050;-78
2023/04/04 02:00:54;;;;;;;14.52;5.72;;;;;;;5.30;82.81;100509.88;10334164;28;20042;-78
2023/04/04 02:05:54;;;;;;;12.65;5.43;;;;;;;5.00;82.82;100472.00;10333647;28;20038;-79
2023/04/04 02:10:58;;;;;;;17.55;5.30;;;;;;;5.06;83.23;100489.91;10340903;28;20054;-83
2023/04/04 02:15:59;;;;;;;10.60;5.13;;;;;;;5.10;82.13;100503.66;10356314;28;20394;-88
2023/04/04 02:21:00;;;;;;;10.98;4.60;;;;;;;4.98;82.15;100477.38;10338053;28;20129;-85
2023/04/04 02:26:01;;;;;;;10.98;5.13;;;;;;;4.66;82.30;100434.50;10341148;28;20504;-85
2023/04/04 02:31:02;;;;;;;18.48;6.72;;;;;;;4.92;82.35;100495.50;10373480;28;20053;-85
2023/04/04 02:36:02;;;;;;;15.60;6.45;;;;;;;4.97;83.38;100509.94;10371512;28;20038;-84
2023/04/04 02:41:03;;;;;;;11.65;6.15;;;;;;;4.23;83.87;100412.56;10357801;28;20084;-85
2023/04/04 02:46:04;;;;;;;18.45;5.60;;;;;;;4.69;84.23;100514.00;10319740;28;20425;-82
2023/04/04 02:51:05;;;;;;;21.85;5.70;;;;;;;5.02;84.31;100541.16;10315400;28;20050;-85
2023/04/04 02:56:06;;;;;;;14.73;4.65;;;;;;;4.51;83.65;100436.59;10289292;28;20185;-83
2023/04/04 03:01:07;;;;;;;10.20;5.93;;;;;;;4.80;83.11;100463.97;10287000;28;20747;-84
2023/04/04 03:06:07;;;;;;;10.23;5.00;;;;;;;5.10;82.64;100479.94;10286661;28;20050;-85
2023/04/04 03:11:08;;;;;;;25.52;8.82;;;;;;;5.62;82.14;100501.84;10289636;28;20038;-85
2023/04/04 03:16:10;;;;;;;12.77;5.80;;;;;;;6.06;80.58;100542.00;10298589;28;20044;-86
2023/04/04 03:21:11;;;;;;;19.83;5.70;;;;;;;6.09;80.89;100547.03;10347133;28;20520;-84
2023/04/04 03:26:11;;;;;;;14.13;5.45;;;;;;;5.95;80.65;100492.84;10338567;28;20046;-85
2023/04/04 03:31:12;;;;;;;10.20;5.03;;;;;;;6.67;80.36;100557.72;10331592;28;20050;-81
2023/04/04 03:36:13;;;;;;;15.52;5.47;;;;;;;6.98;79.78;100560.22;10352269;28;20046;-85
2023/04/04 03:41:14;;;;;;;32.83;11.63;;;;;;;6.81;78.95;100456.94;10342185;28;20045;-84
2023/04/04 03:46:15;;;;;;;15.20;6.90;;;;;;;7.85;77.60;100556.56;10352107;28;20061;-85
2023/04/04 03:51:22;;;;;;;22.13;7.05;;;;;;;8.20;76.92;100579.69;10342227;28;20061;-85
2023/04/04 03:56:23;;;;;;;19.33;6.03;;;;;;;8.35;77.01;100578.19;10359656;28;20508;-86
2023/04/04 04:01:24;;;;;;;16.63;6.25;;;;;;;8.31;75.85;100467.47;10371601;28;20133;-85
2023/04/04 04:06:25;;;;;;;12.27;5.28;;;;;;;9.57;74.72;100567.06;10367633;28;20514;-86
2023/04/04 04:11:25;;;;;;;12.23;5.65;;;;;;;10.19;73.82;100562.41;10343832;28;20057;-88
2023/04/04 04:16:27;;;;;;;10.90;5.45;;;;;;;10.76;72.31;100559.09;10336788;28;20565;-86
2023/04/04 04:21:27;;;;;;;7.38;4.93;;;;;;;11.07;71.20;100561.97;10338762;28;20050;-85
2023/04/04 04:26:28;;;;;;;24.58;5.03;;;;;;;11.55;70.77;100572.75;10337728;28;20049;-84
2023/04/04 04:31:29;;;;;;;15.35;5.85;;;;;;;11.42;70.25;100499.59;10339072;28;20510;-86
2023/04/04 04:36:30;;;;;;;16.98;5.30;;;;;;;11.85;69.67;100552.59;10346009;28;20046;-85
2023/04/04 04:41:31;;;;;;;15.70;6.32;;;;;;;12.00;68.37;100553.53;10352192;28;20054;-87
2023/04/04 04:46:31;;;;;;;15.13;7.07;;;;;;;12.18;67.41;100584.44;10368376;28;20397;-78
2023/04/04 04:51:33;;;;;;;14.38;6.55;;;;;;;11.98;67.48;100581.31;10367649;28;20046;-79
2023/04/04 04:56:33;;;;;;;18.45;6.70;;;;;;;11.30;68.30;100485.00;10347256;28;20086;-80
2023/04/04 05:01:34;;;;;;;21.88;7.38;;;;;;;11.85;67.99;100585.34;10336001;28;20082;-81
2023/04/04 05:06:37;;;;;;;20.13;7.28;;;;;;;11.54;68.02;100493.91;10350234;28;20109;-80
2023/04/04 05:11:37;;;;;;;23.23;8.35;;;;;;;12.41;67.99;100569.31;10334379;28;20065;-81
2023/04/04 05:16:38;;;;;;;23.42;6.50;;;;;;;12.54;67.01;100568.75;10335380;28;20049;-80
2023/04/04 05:21:39;;;;;;;25.40;7.13;;;;;;;12.57;66.94;100569.25;10335695;28;20116;-81
2023/04/04 05:26:40;;;;;;;37.38;7.38;;;;;;;12.46;66.97;100463.06;10335144;28;20047;-81
2023/04/04 05:31:41;;;;;;;29.63;7.32;;;;;;;12.73;66.74;100485.66;10335338;28;20038;-81
2023/04/04 05:36:41;;;;;;;31.65;7.32;;;;;;;13.32;66.39;100562.38;10334830;28;20038;-81
2023/04/04 05:41:42;;;;;;;27.10;5.53;;;;;;;13.46;65.83;100540.25;10334567;28;20108;-81
2023/04/04 05:46:43;;;;;;;23.95;5.82;;;;;;;13.40;64.89;100494.75;10333939;28;20061;-81
2023/04/04 05:51:44;;;;;;;23.60;5.07;;;;;;;14.06;64.24;100565.13;10334078;28;20044;-81
2023/04/04 05:56:46;;;;;;;23.70;6.05;;;;;;;14.35;63.09;100536.69;10333616;28;20061;-81
2023/04/04 06:01:47;;;;;;;19.77;5.38;;;;;;;13.93;62.09;100413.53;10334684;28;20053;-82
2023/04/04 06:06:47;;;;;;;16.02;4.70;;;;;;;15.15;61.20;100554.41;10333781;28;20049;-82
2023/04/04 06:11:48;;;;;;;34.97;5.65;;;;;;;15.49;60.01;100529.53;10333845;28;20536;-81
2023/04/04 06:16:49;;;;;;;21.88;4.60;;;;;;;15.82;58.58;100538.84;10334151;28;20046;-81
2023/04/04 06:21:50;;;;;;;23.17;4.13;;;;;;;15.79;58.39;100497.19;10333791;28;20042;-80
2023/04/04 06:26:51;;;;;;;22.40;4.55;;;;;;;16.41;57.55;100544.47;10333637;28;20072;-82
2023/04/04 06:31:52;;;;;;;34.00;5.28;;;;;;;16.63;57.68;100529.06;10333617;28;20088;-83
2023/04/04 06:36:53;;;;;;;21.17;4.85;;;;;;;17.04;57.08;100528.09;10332836;28;20092;-82
2023/04/04 06:41:54;;;;;;;23.20;4.50;;;;;;;17.33;56.93;100521.50;10332179;28;20046;-80
2023/04/04 06:46:55;;;;;;;23.33;4.10;;;;;;;17.44;56.36;100460.13;10332648;28;20053;-81
2023/04/04 06:51:56;;;;;;;27.13;5.13;;;;;;;17.99;56.05;100527.81;10332927;28;20046;-80
2023/04/04 06:56:57;;;;;;;28.70;5.35;;;;;;;18.30;55.50;100521.66;10311801;28;20057;-81
2023/04/04 07:01:58;;;;;;;43.42;5.82;;;;;;;18.63;54.46;100504.50;10291336;28;20046;-81
2023/04/04 07:07:00;;;;;;;37.17;4.93;;;;;;;19.20;53.74;100507.22;10291435;28;20093;-81
2023/04/04 07:12:01;;;;;;;37.40;5.30;;;;;;;19.24;52.86;100501.19;10291683;28;20070;-81
2023/04/04 07:17:02;;;;;;;36.92;5.50;;;;;;;19.38;52.28;100465.00;10291749;28;20074;-81
2023/04/04 07:22:03;;;;;;;58.20;6.03;;;;;;;19.80;50.66;100494.84;10291725;28;20039;-81
2023/04/04 07:27:04;;;;;;;52.92;6.28;;;;;;;20.00;49.73;100489.19;10291931;28;20101;-81
2023/04/04 07:32:05;;;;;;;64.07;7.10;;;;;;;20.22;48.37;100492.25;10290765;28;20093;-81
2023/04/04 07:37:06;;;;;;;49.33;6.88;;;;;;;20.61;46.82;100490.06;10291338;28;20043;-80
2023/04/04 07:42:07;;;;;;;55.33;6.40;;;;;;;20.57;45.20;100474.56;10290702;28;20414;-81
2023/04/04 07:47:09;;;;;;;50.30;7.32;;;;;;;20.52;44.33;100435.59;10292185;28;20074;-80
2023/04/04 07:52:10;;;;;;;66.38;8.55;;;;;;;20.83;42.96;100466.03;10295046;28;20051;-81
2023/04/04 07:57:11;;;;;;;71.55;8.25;;;;;;;20.59;42.29;100392.31;10298827;28;20090;-81
2023/04/04 08:02:12;;;;;;;41.90;7.07;;;;;;;21.06;41.45;100434.69;10297913;28;20081;-81
2023/04/04 08:07:13;;;;;;;71.45;8.73;;;;;;;21.54;40.90;100453.38;10297531;28;20069;-80
2023/04/04 08:12:13;;;;;;;59.05;8.02;;;;;;;21.74;40.09;100452.97;10297739;28;20043;-81
2023/04/04 08:17:17;;;;;;;61.50;8.57;;;;;;;21.65;39.45;100441.72;10297844;28;20503;-82
2023/04/04 08:22:18;;;;;;;71.50;8.75;;;;;;;21.81;39.58;100432.03;10297914;28;20045;-82
2023/04/04 08:27:19;;;;;;;60.95;8.23;;;;;;;22.03;38.61;100436.78;10297382;28;20042;-82
2023/04/04 08:32:21;;;;;;;53.35;7.57;;;;;;;21.41;38.65;100303.09;10297683;28;20039;-82
2023/04/04 08:37:21;;;;;;;59.50;7.38;;;;;;;22.18;37.28;100407.34;10297360;28;20050;-83
2023/04/04 08:42:26;;;;;;;58.53;6.93;;;;;;;22.14;37.16;100398.03;10297171;28;20063;-82
2023/04/04 08:47:30;;;;;;;54.97;7.88;;;;;;;22.39;37.53;100413.94;10296874;28;20053;-84
2023/04/04 08:52:33;;;;;;;53.65;6.93;;;;;;;22.13;36.48;100331.44;10296298;28;20074;-82
2023/04/04 08:57:34;;;;;;;46.90;6.05;;;;;;;22.50;36.08;100382.47;10297045;28;20061;-83
2023/04/04 09:02:49;;;;;;;43.83;5.43;;;;;;;22.67;35.58;100377.03;10295750;28;20518;-82
2023/04/04 09:07:50;;;;;;;38.15;4.93;;;;;;;22.61;35.33;100354.44;10296106;28;20050;-82
2023/04/04 09:12:53;;;;;;;42.38;5.70;;;;;;;22.58;35.08;100352.25;10296193;28;20550;-84
2023/04/04 09:17:54;;;;;;;45.23;5.80;;;;;;;23.00;34.41;100387.03;10295538;28;20042;-85
2023/04/04 09:22:54;;;;;;;48.55;5.88;;;;;;;23.02;34.56;100377.56;10295230;28;20047;-85
2023/04/04 09:27:56;;;;;;;56.75;6.57;;;;;;;23.07;34.21;100366.00;10295980;28;20043;-82
2023/04/04 09:33:01;;;;;;;37.08;5.55;;;;;;;23.29;34.04;100367.91;10294701;28;20054;-82
2023/04/04 09:38:05;;;;;;;43.65;5.75;;;;;;;22.67;32.97;100295.78;10295393;28;20490;-83
2023/04/04 09:43:07;;;;;;;38.28;5.68;;;;;;;23.11;33.48;100355.47;10295013;28;20078;-82
2023/04/04 09:48:09;;;;;;;44.35;6.13;;;;;;;22.66;33.60;100291.44;10295272;28;20038;-85
2023/04/04 09:53:17;;;;;;;44.08;5.55;;;;;;;22.73;33.15;100271.22;10295140;28;20117;-84
2023/04/04 09:58:30;;;;;;;56.38;5.85;;;;;;;23.09;33.33;100309.66;10294484;28;20063;-83
2023/04/04 10:03:31;;;;;;;47.95;6.72;;;;;;;23.19;33.13;100326.06;10294484;28;20045;-85
2023/04/04 10:08:33;;;;;;;49.30;6.32;;;;;;;23.04;33.08;100285.22;10294698;28;20051;-84
2023/04/04 10:13:39;;;;;;;34.60;4.90;;;;;;;22.91;32.24;100263.88;10293185;28;20510;-84
2023/04/04 10:18:40;;;;;;;40.60;5.43;;;;;;;23.59;32.81;100334.91;10308464;28;20037;-81
2023/04/04 10:23:44;;;;;;;40.90;6.03;;;;;;;23.22;32.13;100267.84;10293709;28;20042;-84
2023/04/04 10:28:45;;;;;;;42.85;6.68;;;;;;;23.38;32.53;100269.63;10292444;28;20130;-83
2023/04/04 10:33:54;;;;;;;60.15;7.00;;;;;;;23.90;33.18;100322.50;10292466;28;20475;-84
2023/04/04 10:39:12;;;;;;;58.22;7.75;;;;;;;23.60;33.37;100294.00;10293107;28;20419;-83
2023/04/04 10:44:37;;;;;;;43.67;6.18;;;;;;;23.69;32.96;100316.03;10292321;28;20093;-86
2023/04/04 10:49:40;;;;;;;54.38;7.55;;;;;;;23.37;33.57;100259.06;10292668;28;20454;-83
2023/04/04 10:54:42;;;;;;;57.17;6.43;;;;;;;23.31;33.64;100247.34;10292246;28;20525;-83
2023/04/04 11:00:09;;;;;;;60.43;7.13;;;;;;;23.77;34.26;100310.19;10292630;28;20560;-82
2023/04/04 11:05:40;;;;;;;53.45;6.70;;;;;;;23.82;33.76;100309.44;10291824;28;20043;-83
2023/04/04 11:10:47;;;;;;;52.33;6.22;;;;;;;22.98;34.02;100232.88;10291785;28;20078;-85
2023/04/04 11:16:06;;;;;;;54.30;6.97;;;;;;;23.47;34.87;100278.13;10292295;28;20138;-84
2023/04/04 11:21:09;;;;;;;59.65;7.40;;;;;;;23.27;35.26;100251.59;10291690;28;20364;-84
2023/04/04 11:26:09;;;;;;;58.67;7.83;;;;;;;23.40;35.38;100274.81;10294342;28;20034;-85
2023/04/04 11:31:16;;;;;;;57.08;8.23;;;;;;;23.36;35.04;100284.50;10300091;28;20433;-85
2023/04/04 11:36:41;;;;;;;45.67;6.18;;;;;;;23.41;35.23;100279.16;10299082;28;20117;-84
2023/04/04 11:41:52;;;;;;;56.22;6.93;;;;;;;22.88;35.66;100212.91;10298499;28;20054;-83
2023/04/04 11:47:08;;;;;;;48.13;5.88;;;;;;;23.04;35.15;100247.28;10299133;28;20117;-84
2023/04/04 11:52:11;;;;;;;63.75;8.07;;;;;;;22.50;34.77;100169.41;10299886;28;20046;-84
2023/04/04 11:57:14;;;;;;;53.25;7.68;;;;;;;22.61;35.51;100237.22;10298725;28;20066;-84
2023/04/04 12:02:19;;;;;;;42.57;5.73;;;;;;;22.75;35.45;100246.63;10298105;28;20047;-85
2023/04/04 12:07:20;;;;;;;60.00;7.35;;;;;;;22.62;35.30;100218.03;10297811;28;20047;-84
2023/04/04 12:12:21;;;;;;;37.80;5.60;;;;;;;22.59;34.91;100217.72;10298173;28;20042;-83
2023/04/04 12:17:22;;;;;;;48.70;5.88;;;;;;;22.60;35.02;100241.00;10297741;28;20121;-84
2023/04/04 12:22:23;;;;;;;64.75;6.82;;;;;;;22.69;35.22;100237.59;10297910;28;20049;-84
2023/04/04 12:27:24;;;;;;;54.20;5.78;;;;;;;22.60;35.02;100232.88;10297653;28;20478;-84
2023/04/04 12:32:26;;;;;;;38.15;6.00;;;;;;;22.12;34.82;100178.31;10297117;28;20049;-81
2023/04/04 12:37:30;;;;;;;44.90;7.25;;;;;;;22.27;34.98;100227.28;10347245;28;20126;-85
2023/04/04 12:42:31;;;;;;;43.03;6.07;;;;;;;22.37;35.51;100209.56;10316517;28;20047;-84
2023/04/04 12:47:33;;;;;;;38.33;5.90;;;;;;;22.50;35.05;100233.56;10291804;28;20074;-85
2023/04/04 12:52:38;;;;;;;30.80;6.20;;;;;;;22.46;34.74;100238.63;10291775;28;20038;-83
2023/04/04 12:57:39;;;;;;;43.90;6.13;;;;;;;22.26;34.86;100233.78;10356054;28;20137;-86
2023/04/04 13:02:47;;;;;;;30.77;5.90;;;;;;;22.09;35.07;100235.63;10350647;28;20133;-87
2023/04/04 13:07:48;;;;;;;40.78;5.32;;;;;;;21.79;35.23;100220.53;10376987;28;20057;-87
2023/04/04 13:12:59;;;;;;;40.08;5.60;;;;;;;21.77;35.40;100211.84;10376833;28;20042;-87
2023/04/04 13:18:16;;;;;;;42.60;5.38;;;;;;;21.57;35.47;100168.28;10347504;28;20094;-86
2023/04/04 13:23:18;;;;;;;26.17;4.88;;;;;;;21.58;35.45;100234.78;10335512;28;20048;-85
2023/04/04 13:28:19;;;;;;;44.13;5.15;;;;;;;20.92;35.86;100121.72;10352606;28;20143;-85
2023/04/04 13:33:21;;;;;;;45.25;5.63;;;;;;;21.55;35.74;100214.47;10373991;28;20069;-86
2023/04/04 13:38:22;;;;;;;38.22;5.43;;;;;;;21.50;35.63;100227.88;10355347;28;20039;-86
2023/04/04 13:43:22;;;;;;;30.85;5.00;;;;;;;21.26;36.37;100197.41;10317301;28;20048;-84
2023/04/04 13:48:23;;;;;;;28.98;4.60;;;;;;;20.78;36.24;100124.94;10349466;28;20433;-74
2023/04/04 13:53:24;;;;;;;28.70;3.45;;;;;;;21.08;36.16;100189.50;10374795;28;20532;-77
2023/04/04 13:58:25;;;;;;;20.38;3.28;;;;;;;20.74;35.95;100155.13;10361409;28;20062;-76
2023/04/04 14:03:26;;;;;;;25.95;3.58;;;;;;;20.52;36.29;100137.91;10333575;28;20046;-74
2023/04/04 14:08:26;;;;;;;25.23;3.97;;;;;;;20.72;36.06;100200.41;10333933;28;20121;-74
2023/04/04 14:13:28;;;;;;;26.58;3.33;;;;;;;20.02;36.75;100114.19;10333203;28;20049;-76
2023/04/04 14:18:29;;;;;;;24.67;3.33;;;;;;;20.37;37.37;100195.06;10333850;28;20035;-75
2023/04/04 14:23:30;;;;;;;24.77;3.28;;;;;;;20.05;37.87;100168.44;10334618;28;20050;-74
2023/04/04 14:28:31;;;;;;;40.33;7.88;;;;;;;20.09;38.14;100193.06;10332454;28;20042;-79
2023/04/04 14:33:32;;;;;;;29.10;4.22;;;;;;;19.87;38.68;100184.75;10332815;28;20044;-76
2023/04/04 14:38:33;;;;;;;19.00;3.47;;;;;;;19.72;39.23;100184.38;10356451;28;20133;-76
2023/04/04 14:43:34;;;;;;;24.70;4.03;;;;;;;19.39;39.86;100174.91;10373281;28;20460;-76
2023/04/04 14:48:35;;;;;;;25.35;3.30;;;;;;;19.33;40.52;100194.66;10335601;28;20060;-76
2023/04/04 14:53:36;;;;;;;29.40;3.72;;;;;;;19.18;40.96;100202.34;10348367;28;20053;-76
2023/04/04 14:58:37;;;;;;;27.05;4.28;;;;;;;18.97;41.48;100193.69;10373305;28;20076;-76
2023/04/04 15:03:38;;;;;;;27.48;3.63;;;;;;;18.82;41.86;100182.50;10329418;28;20049;-76
2023/04/04 15:08:38;;;;;;;28.13;3.80;;;;;;;18.43;42.02;100145.06;10334963;28;20046;-74
2023/04/04 15:13:39;;;;;;;27.05;5.10;;;;;;;18.47;42.45;100196.53;10372647;28;20529;-78
2023/04/04 15:18:40;;;;;;;21.02;3.92;;;;;;;18.31;42.68;100184.50;10365901;28;20052;-78
2023/04/04 15:23:41;;;;;;;21.67;4.30;;;;;;;18.07;42.85;100177.25;10373062;28;20506;-80
2023/04/04 15:28:42;;;;;;;21.25;3.38;;;;;;;17.70;43.36;100147.59;10371505;28;20120;-78
2023/04/04 15:33:42;;;;;;;19.20;3.13;;;;;;;17.73;43.71;100193.66;10360468;28;20042;-78
2023/04/04 15:38:43;;;;;;;16.67;3.25;;;;;;;17.01;44.20;100111.75;10332027;28;20061;-79
2023/04/04 15:43:44;;;;;;;30.35;3.10;;;;;;;17.28;44.38;100200.97;10331682;28;20042;-79
2023/04/04 15:48:46;;;;;;;18.27;3.33;;;;;;;16.46;44.68;100104.16;10331087;28;20034;-80
2023/04/04 15:53:47;;;;;;;19.85;3.00;;;;;;;16.79;44.74;100199.78;10330678;28;20058;-78
2023/04/04 15:58:48;;;;;;;19.98;2.88;;;;;;;16.25;45.07;100150.00;10331415;28;20058;-80
2023/04/04 16:03:49;;;;;;;23.88;3.08;;;;;;;16.42;45.37;100213.69;10331247;28;20112;-79
2023/04/04 16:08:50;;;;;;;16.17;3.60;;;;;;;16.05;45.29;100171.47;10331152;28;20053;-79
2023/04/04 16:13:50;;;;;;;27.88;4.25;;;;;;;16.11;45.39;100211.66;10335749;28;20049;-80
2023/04/04 16:18:51;;;;;;;18.67;3.03;;;;;;;15.55;45.72;100147.75;10359753;28;20045;-81
2023/04/04 16:23:53;;;;;;;25.70;3.33;;;;;;;15.78;45.89;100208.97;10341341;28;20526;-79
2023/04/04 16:28:54;;;;;;;18.98;2.95;;;;;;;15.46;46.36;100175.75;10354311;28;20042;-78
2023/04/04 16:33:55;;;;;;;18.30;3.17;;;;;;;15.10;46.62;100133.28;10358669;28;20049;-79
2023/04/04 16:38:58;;;;;;;14.60;3.15;;;;;;;15.51;47.03;100200.88;10340264;28;20036;-77
2023/04/04 16:43:59;;;;;;;18.67;3.72;;;;;;;15.40;47.00;100198.78;10345448;28;20074;-80
2023/04/04 16:48:59;;;;;;;14.60;3.35;;;;;;;15.37;47.40;100201.06;10336762;28;20050;-79
2023/04/04 16:54:00;;;;;;;16.77;3.75;;;;;;;15.33;47.55;100202.50;10348008;28;20050;-78
2023/04/04 16:59:01;;;;;;;15.30;3.40;;;;;;;15.04;47.69;100188.41;10343386;28;20536;-83
2023/04/04 17:04:02;;;;;;;17.45;3.90;;;;;;;14.96;48.03;100191.28;10333248;28;20402;-79
2023/04/04 17:09:03;;;;;;;19.90;3.85;;;;;;;14.48;48.15;100130.59;10346595;28;20053;-77
2023/04/04 17:14:04;;;;;;;13.82;3.83;;;;;;;14.61;48.47;100189.47;10346338;28;20046;-81
2023/04/04 17:19:05;;;;;;;20.75;4.15;;;;;;;14.17;49.12;100133.69;10338286;28;20469;-80
2023/04/04 17:24:06;;;;;;;16.45;3.63;;;;;;;14.01;49.36;100137.50;10322311;28;20054;-77
2023/04/04 17:29:07;;;;;;;20.92;3.63;;;;;;;13.54;49.95;100082.13;10363578;28;20050;-79
2023/04/04 17:34:08;;;;;;;17.98;3.92;;;;;;;13.96;50.00;100176.50;10344576;28;20484;-79
2023/04/04 17:39:09;;;;;;;15.80;3.10;;;;;;;13.96;50.67;100212.03;10335335;28;20034;-80
2023/04/04 17:44:10;;;;;;;16.83;3.22;;;;;;;13.65;50.76;100191.84;10334944;28;20035;-79
2023/04/04 17:49:11;;;;;;;16.88;3.80;;;;;;;13.17;51.25;100138.22;10334933;28;20046;-78
2023/04/04 17:54:12;;;;;;;19.58;3.33;;;;;;;13.48;51.83;100222.47;10334375;28;20042;-79
2023/04/04 17:59:14;;;;;;;13.70;3.05;;;;;;;13.30;52.33;100224.75;10333680;28;20050;-79
2023/04/04 18:04:15;;;;;;;14.40;3.28;;;;;;;12.71;52.75;100143.88;10334401;28;20042;-80
2023/04/04 18:09:17;;;;;;;12.07;3.30;;;;;;;12.98;53.24;100202.81;10349261;28;20482;-79
2023/04/04 18:14:17;;;;;;;13.23;3.10;;;;;;;12.85;53.47;100205.31;10334197;28;20398;-80
2023/04/04 18:19:18;;;;;;;9.80;3.50;;;;;;;12.71;53.60;100209.66;10333092;28;20039;-80
2023/04/04 18:24:19;;;;;;;16.42;4.03;;;;;;;12.15;53.88;100148.88;10333455;28;20034;-80
2023/04/04 18:29:20;;;;;;;15.00;4.00;;;;;;;12.34;54.09;100196.25;10333227;28;20552;-78
2023/04/04 18:34:21;;;;;;;15.15;4.32;;;;;;;11.96;54.09;100147.53;10338207;28;20084;-78
2023/04/04 18:39:22;;;;;;;20.73;5.20;;;;;;;12.26;54.14;100208.81;10352000;28;20084;-79
2023/04/04 18:44:23;;;;;;;16.77;4.97;;;;;;;12.04;54.68;100200.72;10331592;28;20494;-79
2023/04/04 18:49:23;;;;;;;18.50;6.30;;;;;;;12.01;54.41;100216.22;10332547;28;20108;-80
2023/04/04 18:54:25;;;;;;;11.80;5.97;;;;;;;11.82;54.50;100202.38;10331889;28;20034;-78
2023/04/04 18:59:26;;;;;;;19.27;6.35;;;;;;;11.56;54.80;100180.66;10333027;28;20069;-81
2023/04/04 19:04:29;;;;;;;23.02;7.22;;;;;;;11.63;54.62;100217.00;10332315;28;20042;-81
2023/04/04 19:09:30;;;;;;;14.93;7.32;;;;;;;11.40;54.10;100185.09;10335548;28;20141;-80
2023/04/04 19:14:31;;;;;;;16.38;7.57;;;;;;;11.15;53.09;100139.22;10344289;28;20057;-79
2023/04/04 19:19:31;;;;;;;12.98;6.85;;;;;;;11.45;52.37;100173.91;10340585;28;20513;-79
2023/04/04 19:24:32;;;;;;;14.88;6.20;;;;;;;11.52;51.76;100197.97;10344448;28;20115;-79
2023/04/04 19:29:34;;;;;;;10.98;6.15;;;;;;;10.93;51.62;100119.59;10348199;28;20058;-79
2023/04/04 19:34:36;;;;;;;13.32;6.25;;;;;;;10.59;50.81;100087.22;10311706;28;20043;-78
2023/04/04 19:39:38;;;;;;;21.20;4.80;;;;;;;11.03;49.25;100158.41;10320290;28;20410;-80
2023/04/04 19:44:40;;;;;;;9.75;4.93;;;;;;;11.14;49.65;100174.78;10337756;28;20065;-79
2023/04/04 19:49:41;;;;;;;9.60;3.85;;;;;;;11.16;48.35;100169.31;10337883;28;20042;-79
2023/04/04 19:54:41;;;;;;;11.38;3.60;;;;;;;10.89;46.92;100115.63;10339653;28;20494;-80
2023/04/04 20:00:02;;;;;;;11.40;4.35;;;;;;;10.61;47.27;100061.34;10337627;28;20058;-78
2023/04/04 20:05:30;;;;;;;10.90;4.38;;;;;;;10.98;47.21;100164.25;10338713;28;20416;-78
2023/04/04 20:10:36;;;;;;;9.20;4.28;;;;;;;10.89;47.11;100171.44;10338686;28;20573;-80
2023/04/04 20:15:43;;;;;;;10.30;3.90;;;;;;;10.30;47.10;100077.28;10337776;28;20041;-78
2023/04/04 20:20:48;;;;;;;9.73;3.70;;;;;;;10.54;47.44;100134.75;10337778;28;20038;-78
2023/04/04 20:25:51;;;;;;;13.00;3.63;;;;;;;10.04;47.05;100060.56;10337646;28;20046;-79
2023/04/04 20:30:52;;;;;;;5.05;3.03;;;;;;;10.51;46.83;100152.69;10352285;28;20046;-79
2023/04/04 20:35:54;;;;;;;8.43;3.03;;;;;;;10.39;46.68;100129.34;10337840;28;20045;-79
2023/04/04 20:40:54;;;;;;;7.68;3.53;;;;;;;10.47;46.17;100142.59;10337662;28;20093;-79
2023/04/04 20:45:55;;;;;;;7.03;3.40;;;;;;;10.12;45.27;100077.47;10336966;28;20044;-79
2023/04/04 20:50:56;;;;;;;5.95;3.13;;;;;;;10.35;44.64;100106.75;10336269;28;20049;-79
2023/04/04 20:55:57;;;;;;;5.40;2.92;;;;;;;10.36;45.14;100125.19;10337121;28;20065;-78
2023/04/04 21:00:59;;;;;;;7.85;3.38;;;;;;;10.20;45.46;100118.09;10335882;28;20132;-79
2023/04/04 21:06:00;;;;;;;9.05;3.17;;;;;;;10.22;45.63;100129.34;10335297;28;20450;-78
2023/04/04 21:11:01;;;;;;;9.02;2.80;;;;;;;10.10;45.99;100128.06;10336815;28;20103;-79
2023/04/04 21:16:10;;;;;;;9.48;3.58;;;;;;;9.98;47.51;100124.13;10345117;28;20053;-79
2023/04/04 21:21:17;;;;;;;10.13;3.05;;;;;;;9.87;47.80;100125.31;10335551;28;20498;-80
2023/04/04 21:26:30;;;;;;;13.75;2.95;;;;;;;9.77;47.55;100111.38;10335747;28;20166;-80
2023/04/04 21:31:39;;;;;;;12.55;2.50;;;;;;;9.77;48.29;100114.03;10335542;28;20046;-80
2023/04/04 21:36:40;;;;;;;6.43;2.08;;;;;;;9.51;47.73;100075.31;10335359;28;20034;-78
2023/04/04 21:41:43;;;;;;;8.65;2.42;;;;;;;9.42;49.24;100081.59;10336014;28;20488;-79
2023/04/04 21:46:44;;;;;;;5.72;2.10;;;;;;;9.25;50.30;100066.69;10334530;28;20046;-79
2023/04/04 21:51:45;;;;;;;14.35;2.83;;;;;;;9.41;51.09;100102.97;10335133;28;20461;-79
2023/04/04 21:56:46;;;;;;;10.90;2.47;;;;;;;9.04;53.31;100062.72;10334860;28;20140;-79
2023/04/04 22:01:49;;;;;;;13.27;2.60;;;;;;;9.02;53.77;100064.69;10334469;28;20181;-78
2023/04/04 22:06:49;;;;;;;8.70;2.20;;;;;;;8.42;54.02;99980.22;10334653;28;20101;-79
2023/04/04 22:11:52;;;;;;;7.70;2.35;;;;;;;8.75;53.84;100034.03;10348343;28;20054;-78
2023/04/04 22:16:57;;;;;;;7.72;2.15;;;;;;;8.38;54.74;99998.25;10343293;28;20038;-78
2023/04/04 22:21:58;;;;;;;14.23;2.97;;;;;;;8.28;55.58;99983.47;10367124;28;20050;-78
2023/04/04 22:27:02;;;;;;;13.10;3.58;;;;;;;8.36;56.56;100016.06;10314264;28;20097;-79
2023/04/04 22:32:03;;;;;;;;;;;;;;;8.78;56.42;100078.75;10323765;28;20037;-79
2023/04/04 22:37:04;;;;;;;12.38;3.28;;;;;;;8.06;58.20;99969.84;10373583;28;20032;-78
2023/04/04 22:42:05;;;;;;;11.32;2.90;;;;;;;7.62;60.42;99917.13;10372867;28;20046;-79
2023/04/04 22:47:06;;;;;;;13.73;3.42;;;;;;;8.34;61.63;100057.72;10363267;28;20075;-79
2023/04/04 22:52:09;;;;;;;12.93;3.00;;;;;;;7.98;61.94;99988.31;10333140;28;20042;-79
2023/04/04 22:57:11;;;;;;;10.75;3.10;;;;;;;8.15;61.10;100011.22;10331767;28;20140;-78
2023/04/04 23:02:11;;;;;;;16.52;3.63;;;;;;;8.28;60.54;100036.38;10332387;28;20061;-78